Buoy 55947

sailwx.info

Track history (hours):
 
Tides and Currents Weather Stations Pressure Air Temp Water Temp Dewpoint Dewpoint Depression Visibility Wind Speed Wind Dir Waves Ship Positions

Drifting buoy 55947

Last reported at 2017-Dec-18 07:00 UTC. Time now 2017-Dec-18 08:54 UTC.
Position S 33°10' E 155°03'.

Water temperature 23.8 ° C

Date/timePositionNaut miles runAvg speedWind from/ knotsBaromVisibWave heightAir tempDewpointWater temp
2017-Dec-18 07:00S 33°10' E 155°03'2 1.5 23.8
2017-Dec-18 06:00S 33°10' E 155°01'0 0.0 23.8
2017-Dec-18 05:00S 33°10' E 155°01'0 0.0 23.8
2017-Dec-18 04:00S 33°10' E 155°01'6 1.5 23.8
2017-Dec-18 00:00S 33°10' E 154°54'0 0.0 23.7
2017-Dec-17 23:00S 33°10' E 154°54'0 0.0 23.6
2017-Dec-17 22:00S 33°10' E 154°54'4 1.8 23.6
2017-Dec-17 20:00S 33°08' E 154°50'1 1.2 23.6
2017-Dec-17 19:00S 33°07' E 154°49'2 1.2 23.6
2017-Dec-17 17:00S 33°06' E 154°47'3 2.7 23.6
2017-Dec-17 16:00S 33°04' E 154°44'0 0.0 23.6
2017-Dec-17 15:00S 33°04' E 154°44'5 1.7 23.6
2017-Dec-17 12:00S 33°00' E 154°41'1 0.8 23.7
2017-Dec-17 11:00S 32°59' E 154°40'1 1.2 23.8
2017-Dec-17 10:00S 32°58' E 154°40'2 1.9 23.8
2017-Dec-17 09:00S 32°57' E 154°38'1 0.8 23.8
2017-Dec-17 08:00S 32°56' E 154°38'4 1.9 23.8
2017-Dec-17 06:00S 32°54' E 154°34'0 0.0 23.9
2017-Dec-17 05:00S 32°54' E 154°34'0 0.0 23.9
2017-Dec-17 04:00S 32°54' E 154°34'12 1.9 23.9
2017-Dec-16 22:00S 32°47' E 154°23'1 0.6 23.6
2017-Dec-16 21:00S 32°47' E 154°23'1 0.8 23.6
2017-Dec-16 20:00S 32°46' E 154°22'5 5.5 23.6
2017-Dec-16 19:00S 32°42' E 154°18'0 0.0 23.6
2017-Dec-16 18:00S 32°42' E 154°18'4 1.8 23.6
2017-Dec-16 16:00S 32°39' E 154°16'0 0.0 23.6
2017-Dec-16 15:00S 32°39' E 154°16'8 3.9 23.6
2017-Dec-16 13:00S 32°32' E 154°12'0 0.0 23.6
2017-Dec-16 12:00S 32°32' E 154°12'1 1.2 23.6
2017-Dec-16 11:00S 32°31' E 154°12'4 4.1 23.6
2017-Dec-16 10:00S 32°27' E 154°10'1 0.8 23.7
2017-Dec-16 09:00S 32°26' E 154°09'5 5.0 23.7
2017-Dec-16 08:00S 32°22' E 154°07'0 0.0 23.7
2017-Dec-16 07:00S 32°22' E 154°07'1 1.3 23.7
2017-Dec-16 06:00S 32°20' E 154°07'4 3.6 23.7
2017-Dec-16 05:00S 32°17' E 154°06'0 0.0 23.7
2017-Dec-16 04:00S 32°17' E 154°06'15 2.9 23.7
2017-Dec-15 23:00S 32°02' E 154°03'2 2.5 23.5
2017-Dec-15 22:00S 32°00' E 154°02'2 2.4 23.5
2017-Dec-15 21:00S 31°58' E 154°02'4 4.2 23.5
2017-Dec-15 20:00S 31°53' E 154°02'3 1.5 23.5
2017-Dec-15 18:00S 31°50' E 154°03'4 4.2 23.5
2017-Dec-15 17:00S 31°46' E 154°04'0 0.0 23.5
2017-Dec-15 16:00S 31°46' E 154°04'11 2.7 23.5
2017-Dec-15 12:00S 31°37' E 154°10'2 2.4 23.5
2017-Dec-15 11:00S 31°35' E 154°11'2 2.4 23.5
2017-Dec-15 10:00S 31°33' E 154°13'1 0.8 23.6
2017-Dec-15 09:00S 31°32' E 154°13'4 3.5 23.6
2017-Dec-15 08:00S 31°30' E 154°16'2 2.4 23.6
2017-Dec-15 07:00S 31°28' E 154°17'2 1.6 23.7
2017-Dec-15 06:00S 31°27' E 154°19'2 2.4 23.7
2017-Dec-15 05:00S 31°25' E 154°20'0 0.0 23.8
2017-Dec-15 04:00S 31°25' E 154°20'11 2.7 23.7
2017-Dec-15 00:00S 31°19' E 154°31'1 0.6 23.5
2017-Dec-14 23:00S 31°18' E 154°31'3 1.4 23.5
2017-Dec-14 21:00S 31°17' E 154°34'3 2.8 23.4
2017-Dec-14 20:00S 31°16' E 154°37'2 1.7 23.4
2017-Dec-14 19:00S 31°15' E 154°38'4 3.8 23.4
2017-Dec-14 18:00S 31°14' E 154°43'7 3.6 23.4
2017-Dec-14 16:00S 31°13' E 154°51'0 0.0 23.4
2017-Dec-14 12:00S 31°13' E 154°51'2 2.1 23.4
2017-Dec-14 11:00S 31°13' E 154°53'2 2.1
2017-Dec-14 10:00S 31°13' E 154°56'3 2.6 23.5
2017-Dec-14 09:00S 31°13' E 154°59'2 1.5 23.5
2017-Dec-14 08:00S 31°13' E 155°01'0 0.0 23.5
2017-Dec-14 07:00S 31°13' E 155°01'1 0.5 23.5
2017-Dec-14 06:00S 31°13' E 155°01'8 7.8 23.5
2017-Dec-14 05:00S 31°14' E 155°10'0 0.0 23.5
2017-Dec-13 23:00S 31°14' E 155°10'3 2.8 23.3
2017-Dec-13 22:00S 31°16' E 155°13'1 0.5 23.2
2017-Dec-13 21:00S 31°16' E 155°14'1 1.2 23.2
2017-Dec-13 20:00S 31°16' E 155°15'1 1.2 23.2
2017-Dec-13 19:00S 31°17' E 155°16'2 0.7 23.3
2017-Dec-13 16:00S 31°17' E 155°19'8 2.1 23.4
2017-Dec-13 12:00S 31°22' E 155°27'1 0.8 23.8
2017-Dec-13 11:00S 31°22' E 155°28'2 1.6 23.9
2017-Dec-13 10:00S 31°23' E 155°29'2 1.9 23.9
2017-Dec-13 09:00S 31°25' E 155°31'2 2.1 24.0
2017-Dec-13 08:00S 31°26' E 155°32'2 2.1 24.1
2017-Dec-13 07:00S 31°28' E 155°33'0 0.0 24.2
2017-Dec-13 06:00S 31°28' E 155°33'1 0.5 24.3
2017-Dec-13 05:00S 31°28' E 155°34'0 0.0 24.4
2017-Dec-13 04:00S 31°28' E 155°34'12 2.9 24.4
2017-Dec-13 00:00S 31°38' E 155°40'0 0.0 24.1
2017-Dec-12 23:00S 31°38' E 155°40'1 1.3 24.0
2017-Dec-12 22:00S 31°40' E 155°41'2 2.1 23.9
2017-Dec-12 21:00S 31°41' E 155°42'1 1.3 23.9
2017-Dec-12 20:00S 31°43' E 155°43'3 3.0 23.9
2017-Dec-12 19:00S 31°46' E 155°43'0 0.0 23.9
2017-Dec-12 18:00S 31°46' E 155°43'3 3.0 23.9
2017-Dec-12 17:00S 31°49' E 155°44'4 4.1 23.9
2017-Dec-12 16:00S 31°52' E 155°46'10 2.1 23.9
2017-Dec-12 11:00S 32°02' E 155°48'5 4.9 23.8
2017-Dec-12 10:00S 32°07' E 155°49'0 0.0 23.8
2017-Dec-12 09:00S 32°07' E 155°49'4 3.6 24.0
2017-Dec-12 08:00S 32°11' E 155°49'4 3.6 24.2
2017-Dec-12 07:00S 32°14' E 155°50'0 0.0 24.3
2017-Dec-12 06:00S 32°14' E 155°50'1 0.6 24.3
2017-Dec-12 05:00S 32°15' E 155°50'15 2.2 24.4
2017-Dec-11 22:00S 32°30' E 155°52'4 1.9 23.4
2017-Dec-11 20:00S 32°34' E 155°53'5 2.7 23.4
2017-Dec-11 18:00S 32°39' E 155°54'0 0.0 23.5
2017-Dec-11 17:00S 32°39' E 155°54'3 3.2 23.5
2017-Dec-11 16:00S 32°42' E 155°55'1 0.5 23.5
2017-Dec-11 15:00S 32°42' E 155°55'7 2.2 23.5
2017-Dec-11 12:00S 32°49' E 155°56'1 1.3 23.2
2017-Dec-11 11:00S 32°50' E 155°56'3 3.0 23.2
2017-Dec-11 10:00S 32°53' E 155°56'2 1.9 23.1
2017-Dec-11 09:00S 32°55' E 155°56'1 1.3 23.0
2017-Dec-11 08:00S 32°56' E 155°56'2 2.5 22.9
2017-Dec-11 07:00S 32°58' E 155°57'1 0.6 22.9
2017-Dec-11 06:00S 32°59' E 155°57'2 2.4 23.0
2017-Dec-11 05:00S 33°01' E 155°57'0 0.0 22.9
2017-Dec-11 04:00S 33°01' E 155°57'0 0.0 22.8
2017-Dec-11 03:00S 33°01' E 155°57'6 1.5 22.8
2017-Dec-10 23:00S 33°07' E 155°58'2 2.1 22.6
2017-Dec-10 22:00S 33°09' E 155°59'1 0.6 22.4
2017-Dec-10 21:00S 33°10' E 155°59'1 1.2 22.3
2017-Dec-10 20:00S 33°11' E 155°59'1 0.5 22.2
2017-Dec-10 19:00S 33°11' E 155°59'2 2.1 22.1
2017-Dec-10 18:00S 33°13' E 156°01'0 0.0 22.1
2017-Dec-10 17:00S 33°13' E 156°01'2 1.9 22.1
2017-Dec-10 16:00S 33°14' E 156°02'0 0.0 22.2
2017-Dec-10 15:00S 33°14' E 156°02'6 1.9 22.1
2017-Dec-10 12:00S 33°17' E 156°08'2 1.6 22.1
2017-Dec-10 11:00S 33°19' E 156°09'0 0.0 22.1
2017-Dec-10 10:00S 33°19' E 156°09'3 2.6 22.1
2017-Dec-10 09:00S 33°21' E 156°10'2 2.1 22.1
2017-Dec-10 08:00S 33°23' E 156°09'3 2.8 22.1
2017-Dec-10 07:00S 33°24' E 156°12'1 1.2 22.2
2017-Dec-10 06:00S 33°25' E 156°12'1 1.3 22.1
2017-Dec-10 05:00S 33°26' E 156°13'0 0.0 22.1
2017-Dec-10 04:00S 33°26' E 156°13'2 0.4 21.8
2017-Dec-09 23:00S 33°26' E 156°15'4 1.8 21.4
2017-Dec-09 21:00S 33°26' E 156°19'1 0.5 21.2
2017-Dec-09 20:00S 33°26' E 156°20'3 2.5 21.2
2017-Dec-09 19:00S 33°26' E 156°23'2 0.8 21.2
2017-Dec-09 17:00S 33°27' E 156°25'3 3.2 21.2
2017-Dec-09 16:00S 33°28' E 156°28'0 0.0 21.3
2017-Dec-09 15:00S 33°28' E 156°28'10 3.4 21.3
2017-Dec-09 12:00S 33°36' E 156°36'0 0.0 21.4
2017-Dec-09 11:00S 33°36' E 156°36'0 0.5 21.4
2017-Dec-09 10:00S 33°36' E 156°35'2 2.1 21.4
2017-Dec-09 09:00S 33°38' E 156°37'1 1.2 21.4
2017-Dec-09 08:00S 33°39' E 156°37'0 0.2 21.6
2017-Dec-09 06:00S 33°39' E 156°37'0 0.5 21.7
2017-Dec-09 05:00S 33°39' E 156°37'0 0.0 21.6
2017-Dec-09 04:00S 33°39' E 156°37'7 6.9 21.4
2017-Dec-09 03:00S 33°35' E 156°43'1 0.3 21.3
2017-Dec-08 23:00S 33°34' E 156°44'0 0.5 21.2
2017-Dec-08 22:00S 33°34' E 156°44'3 3.1 21.3
2017-Dec-08 21:00S 33°34' E 156°47'1 1.0 21.4
2017-Dec-08 20:00S 33°34' E 156°49'3 2.6 21.4
2017-Dec-08 19:00S 33°33' E 156°52'3 3.1 21.5
2017-Dec-08 18:00S 33°34' E 156°55'4 3.6 21.5
2017-Dec-08 17:00S 33°34' E 156°59'0 0.0 21.5
2017-Dec-08 16:00S 33°34' E 156°59'0 0.0 21.4
2017-Dec-08 15:00S 33°34' E 156°59'8 2.8 21.6
2017-Dec-08 12:00S 33°38' E 157°08'1 0.8 21.6
2017-Dec-08 11:00S 33°38' E 157°09'2 2.3 21.7
2017-Dec-08 10:00S 33°40' E 157°11'0 0.5 21.8
2017-Dec-08 09:00S 33°40' E 157°12'1 0.8 21.9
2017-Dec-08 08:00S 33°40' E 157°13'   21.9
Track history (hours):
 
Tides and Currents Weather Stations Pressure Air Temp Water Temp Dewpoint Dewpoint Depression Visibility Wind Speed Wind Dir Waves Ship Positions

Drifting buoy 55947

Last reported at 2017-Dec-18 07:00 UTC. Time now 2017-Dec-18 08:54 UTC.
Position S 33°10' E 155°03'.

Water temperature 23.8 ° C

Date/timePositionNaut miles runAvg speedWind from/ knotsBaromVisibWave heightAir tempDewpointWater temp
2017-Dec-18 07:00S 33°10' E 155°03'2 1.5 23.8
2017-Dec-18 06:00S 33°10' E 155°01'0 0.0 23.8
2017-Dec-18 05:00S 33°10' E 155°01'0 0.0 23.8
2017-Dec-18 04:00S 33°10' E 155°01'6 1.5 23.8
2017-Dec-18 00:00S 33°10' E 154°54'0 0.0 23.7
2017-Dec-17 23:00S 33°10' E 154°54'0 0.0 23.6
2017-Dec-17 22:00S 33°10' E 154°54'4 1.8 23.6
2017-Dec-17 20:00S 33°08' E 154°50'1 1.2 23.6
2017-Dec-17 19:00S 33°07' E 154°49'2 1.2 23.6
2017-Dec-17 17:00S 33°06' E 154°47'3 2.7 23.6
2017-Dec-17 16:00S 33°04' E 154°44'0 0.0 23.6
2017-Dec-17 15:00S 33°04' E 154°44'5 1.7 23.6
2017-Dec-17 12:00S 33°00' E 154°41'1 0.8 23.7
2017-Dec-17 11:00S 32°59' E 154°40'1 1.2 23.8
2017-Dec-17 10:00S 32°58' E 154°40'2 1.9 23.8
2017-Dec-17 09:00S 32°57' E 154°38'1 0.8 23.8
2017-Dec-17 08:00S 32°56' E 154°38'4 1.9 23.8
2017-Dec-17 06:00S 32°54' E 154°34'0 0.0 23.9
2017-Dec-17 05:00S 32°54' E 154°34'0 0.0 23.9
2017-Dec-17 04:00S 32°54' E 154°34'12 1.9 23.9
2017-Dec-16 22:00S 32°47' E 154°23'1 0.6 23.6
2017-Dec-16 21:00S 32°47' E 154°23'1 0.8 23.6
2017-Dec-16 20:00S 32°46' E 154°22'5 5.5 23.6
2017-Dec-16 19:00S 32°42' E 154°18'0 0.0 23.6
2017-Dec-16 18:00S 32°42' E 154°18'4 1.8 23.6
2017-Dec-16 16:00S 32°39' E 154°16'0 0.0 23.6
2017-Dec-16 15:00S 32°39' E 154°16'8 3.9 23.6
2017-Dec-16 13:00S 32°32' E 154°12'0 0.0 23.6
2017-Dec-16 12:00S 32°32' E 154°12'1 1.2 23.6
2017-Dec-16 11:00S 32°31' E 154°12'4 4.1 23.6
2017-Dec-16 10:00S 32°27' E 154°10'1 0.8 23.7
2017-Dec-16 09:00S 32°26' E 154°09'5 5.0 23.7
2017-Dec-16 08:00S 32°22' E 154°07'0 0.0 23.7
2017-Dec-16 07:00S 32°22' E 154°07'1 1.3 23.7
2017-Dec-16 06:00S 32°20' E 154°07'4 3.6 23.7
2017-Dec-16 05:00S 32°17' E 154°06'0 0.0 23.7
2017-Dec-16 04:00S 32°17' E 154°06'15 2.9 23.7
2017-Dec-15 23:00S 32°02' E 154°03'2 2.5 23.5
2017-Dec-15 22:00S 32°00' E 154°02'2 2.4 23.5
2017-Dec-15 21:00S 31°58' E 154°02'4 4.2 23.5
2017-Dec-15 20:00S 31°53' E 154°02'3 1.5 23.5
2017-Dec-15 18:00S 31°50' E 154°03'4 4.2 23.5
2017-Dec-15 17:00S 31°46' E 154°04'0 0.0 23.5
2017-Dec-15 16:00S 31°46' E 154°04'11 2.7 23.5
2017-Dec-15 12:00S 31°37' E 154°10'2 2.4 23.5
2017-Dec-15 11:00S 31°35' E 154°11'2 2.4 23.5
2017-Dec-15 10:00S 31°33' E 154°13'1 0.8 23.6
2017-Dec-15 09:00S 31°32' E 154°13'4 3.5 23.6
2017-Dec-15 08:00S 31°30' E 154°16'2 2.4 23.6
2017-Dec-15 07:00S 31°28' E 154°17'2 1.6 23.7
2017-Dec-15 06:00S 31°27' E 154°19'2 2.4 23.7
2017-Dec-15 05:00S 31°25' E 154°20'0 0.0 23.8
2017-Dec-15 04:00S 31°25' E 154°20'11 2.7 23.7
2017-Dec-15 00:00S 31°19' E 154°31'1 0.6 23.5
2017-Dec-14 23:00S 31°18' E 154°31'3 1.4 23.5
2017-Dec-14 21:00S 31°17' E 154°34'3 2.8 23.4
2017-Dec-14 20:00S 31°16' E 154°37'2 1.7 23.4
2017-Dec-14 19:00S 31°15' E 154°38'4 3.8 23.4
2017-Dec-14 18:00S 31°14' E 154°43'7 3.6 23.4
2017-Dec-14 16:00S 31°13' E 154°51'0 0.0 23.4
2017-Dec-14 12:00S 31°13' E 154°51'2 2.1 23.4
2017-Dec-14 11:00S 31°13' E 154°53'2 2.1
2017-Dec-14 10:00S 31°13' E 154°56'3 2.6 23.5
2017-Dec-14 09:00S 31°13' E 154°59'2 1.5 23.5
2017-Dec-14 08:00S 31°13' E 155°01'0 0.0 23.5
2017-Dec-14 07:00S 31°13' E 155°01'1 0.5 23.5
2017-Dec-14 06:00S 31°13' E 155°01'8 7.8 23.5
2017-Dec-14 05:00S 31°14' E 155°10'0 0.0 23.5
2017-Dec-13 23:00S 31°14' E 155°10'3 2.8 23.3
2017-Dec-13 22:00S 31°16' E 155°13'1 0.5 23.2
2017-Dec-13 21:00S 31°16' E 155°14'1 1.2 23.2
2017-Dec-13 20:00S 31°16' E 155°15'1 1.2 23.2
2017-Dec-13 19:00S 31°17' E 155°16'2 0.7 23.3
2017-Dec-13 16:00S 31°17' E 155°19'8 2.1 23.4
2017-Dec-13 12:00S 31°22' E 155°27'1 0.8 23.8
2017-Dec-13 11:00S 31°22' E 155°28'2 1.6 23.9
2017-Dec-13 10:00S 31°23' E 155°29'2 1.9 23.9
2017-Dec-13 09:00S 31°25' E 155°31'2 2.1 24.0
2017-Dec-13 08:00S 31°26' E 155°32'2 2.1 24.1
2017-Dec-13 07:00S 31°28' E 155°33'0 0.0 24.2
2017-Dec-13 06:00S 31°28' E 155°33'1 0.5 24.3
2017-Dec-13 05:00S 31°28' E 155°34'0 0.0 24.4
2017-Dec-13 04:00S 31°28' E 155°34'12 2.9 24.4
2017-Dec-13 00:00S 31°38' E 155°40'0 0.0 24.1
2017-Dec-12 23:00S 31°38' E 155°40'1 1.3 24.0
2017-Dec-12 22:00S 31°40' E 155°41'2 2.1 23.9
2017-Dec-12 21:00S 31°41' E 155°42'1 1.3 23.9
2017-Dec-12 20:00S 31°43' E 155°43'3 3.0 23.9
2017-Dec-12 19:00S 31°46' E 155°43'0 0.0 23.9
2017-Dec-12 18:00S 31°46' E 155°43'3 3.0 23.9
2017-Dec-12 17:00S 31°49' E 155°44'4 4.1 23.9
2017-Dec-12 16:00S 31°52' E 155°46'10 2.1 23.9
2017-Dec-12 11:00S 32°02' E 155°48'5 4.9 23.8
2017-Dec-12 10:00S 32°07' E 155°49'0 0.0 23.8
2017-Dec-12 09:00S 32°07' E 155°49'4 3.6 24.0
2017-Dec-12 08:00S 32°11' E 155°49'4 3.6 24.2
2017-Dec-12 07:00S 32°14' E 155°50'0 0.0 24.3
2017-Dec-12 06:00S 32°14' E 155°50'1 0.6 24.3
2017-Dec-12 05:00S 32°15' E 155°50'15 2.2 24.4
2017-Dec-11 22:00S 32°30' E 155°52'4 1.9 23.4
2017-Dec-11 20:00S 32°34' E 155°53'5 2.7 23.4
2017-Dec-11 18:00S 32°39' E 155°54'0 0.0 23.5
2017-Dec-11 17:00S 32°39' E 155°54'3 3.2 23.5
2017-Dec-11 16:00S 32°42' E 155°55'1 0.5 23.5
2017-Dec-11 15:00S 32°42' E 155°55'7 2.2 23.5
2017-Dec-11 12:00S 32°49' E 155°56'1 1.3 23.2
2017-Dec-11 11:00S 32°50' E 155°56'3 3.0 23.2
2017-Dec-11 10:00S 32°53' E 155°56'2 1.9 23.1
2017-Dec-11 09:00S 32°55' E 155°56'1 1.3 23.0
2017-Dec-11 08:00S 32°56' E 155°56'2 2.5 22.9
2017-Dec-11 07:00S 32°58' E 155°57'1 0.6 22.9
2017-Dec-11 06:00S 32°59' E 155°57'2 2.4 23.0
2017-Dec-11 05:00S 33°01' E 155°57'0 0.0 22.9
2017-Dec-11 04:00S 33°01' E 155°57'0 0.0 22.8
2017-Dec-11 03:00S 33°01' E 155°57'6 1.5 22.8
2017-Dec-10 23:00S 33°07' E 155°58'2 2.1 22.6
2017-Dec-10 22:00S 33°09' E 155°59'1 0.6 22.4
2017-Dec-10 21:00S 33°10' E 155°59'1 1.2 22.3
2017-Dec-10 20:00S 33°11' E 155°59'1 0.5 22.2
2017-Dec-10 19:00S 33°11' E 155°59'2 2.1 22.1
2017-Dec-10 18:00S 33°13' E 156°01'0 0.0 22.1
2017-Dec-10 17:00S 33°13' E 156°01'2 1.9 22.1
2017-Dec-10 16:00S 33°14' E 156°02'0 0.0 22.2
2017-Dec-10 15:00S 33°14' E 156°02'6 1.9 22.1
2017-Dec-10 12:00S 33°17' E 156°08'2 1.6 22.1
2017-Dec-10 11:00S 33°19' E 156°09'0 0.0 22.1
2017-Dec-10 10:00S 33°19' E 156°09'3 2.6 22.1
2017-Dec-10 09:00S 33°21' E 156°10'2 2.1 22.1
2017-Dec-10 08:00S 33°23' E 156°09'3 2.8 22.1
2017-Dec-10 07:00S 33°24' E 156°12'1 1.2 22.2
2017-Dec-10 06:00S 33°25' E 156°12'1 1.3 22.1
2017-Dec-10 05:00S 33°26' E 156°13'0 0.0 22.1
2017-Dec-10 04:00S 33°26' E 156°13'2 0.4 21.8
2017-Dec-09 23:00S 33°26' E 156°15'4 1.8 21.4
2017-Dec-09 21:00S 33°26' E 156°19'1 0.5 21.2
2017-Dec-09 20:00S 33°26' E 156°20'3 2.5 21.2
2017-Dec-09 19:00S 33°26' E 156°23'2 0.8 21.2
2017-Dec-09 17:00S 33°27' E 156°25'3 3.2 21.2
2017-Dec-09 16:00S 33°28' E 156°28'0 0.0 21.3
2017-Dec-09 15:00S 33°28' E 156°28'10 3.4 21.3
2017-Dec-09 12:00S 33°36' E 156°36'0 0.0 21.4
2017-Dec-09 11:00S 33°36' E 156°36'0 0.5 21.4
2017-Dec-09 10:00S 33°36' E 156°35'2 2.1 21.4
2017-Dec-09 09:00S 33°38' E 156°37'1 1.2 21.4
2017-Dec-09 08:00S 33°39' E 156°37'0 0.2 21.6
2017-Dec-09 06:00S 33°39' E 156°37'0 0.5 21.7
2017-Dec-09 05:00S 33°39' E 156°37'0 0.0 21.6
2017-Dec-09 04:00S 33°39' E 156°37'7 6.9 21.4
2017-Dec-09 03:00S 33°35' E 156°43'1 0.3 21.3
2017-Dec-08 23:00S 33°34' E 156°44'0 0.5 21.2
2017-Dec-08 22:00S 33°34' E 156°44'3 3.1 21.3
2017-Dec-08 21:00S 33°34' E 156°47'1 1.0 21.4
2017-Dec-08 20:00S 33°34' E 156°49'3 2.6 21.4
2017-Dec-08 19:00S 33°33' E 156°52'3 3.1 21.5
2017-Dec-08 18:00S 33°34' E 156°55'4 3.6 21.5
2017-Dec-08 17:00S 33°34' E 156°59'0 0.0 21.5
2017-Dec-08 16:00S 33°34' E 156°59'0 0.0 21.4
2017-Dec-08 15:00S 33°34' E 156°59'8 2.8 21.6
2017-Dec-08 12:00S 33°38' E 157°08'1 0.8 21.6
2017-Dec-08 11:00S 33°38' E 157°09'2 2.3 21.7
2017-Dec-08 10:00S 33°40' E 157°11'0 0.5 21.8
2017-Dec-08 09:00S 33°40' E 157°12'1 0.8 21.9
2017-Dec-08 08:00S 33°40' E 157°13'   21.9

Dump ship's entire track history